sensor_id;sensor_type;location;lat;lon;timestamp;P1;durP1;ratioP1;P2;durP2;ratioP2
24857;SDS011;12935;50.782;6.074;2024-03-08T00:01:54;103.37;;;87.53;;
24857;SDS011;12935;50.782;6.074;2024-03-08T00:04:20;106.73;;;88.20;;
24857;SDS011;12935;50.782;6.074;2024-03-08T00:06:45;104.50;;;90.10;;
24857;SDS011;12935;50.782;6.074;2024-03-08T00:09:11;107.70;;;87.20;;
24857;SDS011;12935;50.782;6.074;2024-03-08T00:11:37;96.43;;;84.90;;
24857;SDS011;12935;50.782;6.074;2024-03-08T00:14:02;103.03;;;87.00;;
24857;SDS011;12935;50.782;6.074;2024-03-08T00:16:31;108.20;;;90.05;;
24857;SDS011;12935;50.782;6.074;2024-03-08T00:18:57;98.30;;;85.10;;
24857;SDS011;12935;50.782;6.074;2024-03-08T00:21:22;104.67;;;88.53;;
24857;SDS011;12935;50.782;6.074;2024-03-08T00:23:47;105.70;;;89.90;;
24857;SDS011;12935;50.782;6.074;2024-03-08T00:26:13;98.37;;;87.77;;
24857;SDS011;12935;50.782;6.074;2024-03-08T00:28:38;101.23;;;88.63;;
24857;SDS011;12935;50.782;6.074;2024-03-08T00:31:03;95.93;;;84.87;;
24857;SDS011;12935;50.782;6.074;2024-03-08T00:33:28;105.80;;;89.03;;
24857;SDS011;12935;50.782;6.074;2024-03-08T00:35:54;98.63;;;86.80;;
24857;SDS011;12935;50.782;6.074;2024-03-08T00:38:19;100.03;;;86.50;;
24857;SDS011;12935;50.782;6.074;2024-03-08T00:40:45;110.83;;;89.60;;
24857;SDS011;12935;50.782;6.074;2024-03-08T00:43:10;107.57;;;88.37;;
24857;SDS011;12935;50.782;6.074;2024-03-08T00:45:36;98.40;;;86.20;;
24857;SDS011;12935;50.782;6.074;2024-03-08T00:48:02;98.10;;;85.00;;
24857;SDS011;12935;50.782;6.074;2024-03-08T00:50:28;112.97;;;89.15;;
24857;SDS011;12935;50.782;6.074;2024-03-08T00:52:53;97.27;;;86.20;;
24857;SDS011;12935;50.782;6.074;2024-03-08T00:55:18;97.40;;;85.60;;
24857;SDS011;12935;50.782;6.074;2024-03-08T00:57:43;98.90;;;85.90;;
24857;SDS011;12935;50.782;6.074;2024-03-08T01:00:09;109.13;;;88.80;;
24857;SDS011;12935;50.782;6.074;2024-03-08T01:02:37;101.43;;;86.60;;
24857;SDS011;12935;50.782;6.074;2024-03-08T01:05:05;92.50;;;82.47;;
24857;SDS011;12935;50.782;6.074;2024-03-08T01:07:33;113.55;;;90.60;;
24857;SDS011;12935;50.782;6.074;2024-03-08T01:10:02;98.93;;;87.20;;
24857;SDS011;12935;50.782;6.074;2024-03-08T01:12:28;102.40;;;87.82;;
24857;SDS011;12935;50.782;6.074;2024-03-08T01:14:54;92.20;;;82.13;;
24857;SDS011;12935;50.782;6.074;2024-03-08T01:17:19;95.73;;;85.13;;
24857;SDS011;12935;50.782;6.074;2024-03-08T01:19:45;100.53;;;85.03;;
24857;SDS011;12935;50.782;6.074;2024-03-08T01:22:10;97.90;;;86.50;;
24857;SDS011;12935;50.782;6.074;2024-03-08T01:24:36;119.97;;;91.00;;
24857;SDS011;12935;50.782;6.074;2024-03-08T01:27:02;101.55;;;86.70;;
24857;SDS011;12935;50.782;6.074;2024-03-08T01:29:27;122.47;;;90.47;;
24857;SDS011;12935;50.782;6.074;2024-03-08T01:31:54;102.57;;;87.20;;
24857;SDS011;12935;50.782;6.074;2024-03-08T01:34:21;100.07;;;88.18;;
24857;SDS011;12935;50.782;6.074;2024-03-08T01:36:46;101.47;;;86.47;;
24857;SDS011;12935;50.782;6.074;2024-03-08T01:39:11;102.73;;;88.10;;
24857;SDS011;12935;50.782;6.074;2024-03-08T01:41:37;116.27;;;89.57;;
24857;SDS011;12935;50.782;6.074;2024-03-08T01:44:02;96.40;;;85.47;;
24857;SDS011;12935;50.782;6.074;2024-03-08T01:46:28;102.77;;;89.20;;
24857;SDS011;12935;50.782;6.074;2024-03-08T01:48:54;102.15;;;87.65;;
24857;SDS011;12935;50.782;6.074;2024-03-08T01:51:19;95.70;;;85.50;;
24857;SDS011;12935;50.782;6.074;2024-03-08T01:53:45;97.67;;;85.50;;
24857;SDS011;12935;50.782;6.074;2024-03-08T01:56:12;105.85;;;87.55;;
24857;SDS011;12935;50.782;6.074;2024-03-08T01:58:40;95.18;;;84.90;;
24857;SDS011;12935;50.782;6.074;2024-03-08T02:01:08;100.60;;;86.75;;
24857;SDS011;12935;50.782;6.074;2024-03-08T02:03:41;105.40;;;89.38;;
24857;SDS011;12935;50.782;6.074;2024-03-08T02:06:08;91.82;;;82.05;;
24857;SDS011;12935;50.782;6.074;2024-03-08T02:08:35;94.43;;;84.53;;
24857;SDS011;12935;50.782;6.074;2024-03-08T02:11:01;96.22;;;85.43;;
24857;SDS011;12935;50.782;6.074;2024-03-08T02:13:27;100.13;;;89.07;;
24857;SDS011;12935;50.782;6.074;2024-03-08T02:15:54;93.10;;;83.20;;
24857;SDS011;12935;50.782;6.074;2024-03-08T02:18:21;111.38;;;90.97;;
24857;SDS011;12935;50.782;6.074;2024-03-08T02:20:47;95.75;;;85.03;;
24857;SDS011;12935;50.782;6.074;2024-03-08T02:23:14;94.07;;;84.20;;
24857;SDS011;12935;50.782;6.074;2024-03-08T02:25:40;102.33;;;85.27;;
24857;SDS011;12935;50.782;6.074;2024-03-08T02:28:06;94.90;;;84.60;;
24857;SDS011;12935;50.782;6.074;2024-03-08T02:30:34;96.22;;;85.22;;
24857;SDS011;12935;50.782;6.074;2024-03-08T02:33:00;104.45;;;85.30;;
24857;SDS011;12935;50.782;6.074;2024-03-08T02:35:26;105.00;;;88.20;;
24857;SDS011;12935;50.782;6.074;2024-03-08T02:37:51;93.97;;;84.00;;
24857;SDS011;12935;50.782;6.074;2024-03-08T02:40:16;123.00;;;92.17;;
24857;SDS011;12935;50.782;6.074;2024-03-08T02:42:42;95.07;;;84.93;;
24857;SDS011;12935;50.782;6.074;2024-03-08T02:45:08;95.90;;;85.57;;
24857;SDS011;12935;50.782;6.074;2024-03-08T02:47:34;116.05;;;91.28;;
24857;SDS011;12935;50.782;6.074;2024-03-08T02:50:00;103.90;;;88.43;;
24857;SDS011;12935;50.782;6.074;2024-03-08T02:52:26;95.68;;;85.30;;
24857;SDS011;12935;50.782;6.074;2024-03-08T02:54:52;98.83;;;86.53;;
24857;SDS011;12935;50.782;6.074;2024-03-08T02:57:17;93.40;;;83.27;;
24857;SDS011;12935;50.782;6.074;2024-03-08T02:59:43;100.43;;;88.17;;
24857;SDS011;12935;50.782;6.074;2024-03-08T03:02:08;94.47;;;84.37;;
24857;SDS011;12935;50.782;6.074;2024-03-08T03:04:35;121.75;;;89.47;;
24857;SDS011;12935;50.782;6.074;2024-03-08T03:07:01;116.50;;;89.47;;
24857;SDS011;12935;50.782;6.074;2024-03-08T03:09:26;98.00;;;87.30;;
24857;SDS011;12935;50.782;6.074;2024-03-08T03:11:53;93.97;;;83.65;;
24857;SDS011;12935;50.782;6.074;2024-03-08T03:14:23;95.47;;;84.93;;
24857;SDS011;12935;50.782;6.074;2024-03-08T03:16:48;90.60;;;81.27;;
24857;SDS011;12935;50.782;6.074;2024-03-08T03:19:13;94.77;;;85.17;;
24857;SDS011;12935;50.782;6.074;2024-03-08T03:21:40;97.47;;;86.45;;
24857;SDS011;12935;50.782;6.074;2024-03-08T03:24:08;102.53;;;86.45;;
24857;SDS011;12935;50.782;6.074;2024-03-08T03:26:35;94.75;;;84.32;;
24857;SDS011;12935;50.782;6.074;2024-03-08T03:29:03;94.32;;;84.38;;
24857;SDS011;12935;50.782;6.074;2024-03-08T03:31:30;92.50;;;82.90;;
24857;SDS011;12935;50.782;6.074;2024-03-08T03:33:56;97.37;;;86.70;;
24857;SDS011;12935;50.782;6.074;2024-03-08T03:36:26;94.97;;;84.72;;
24857;SDS011;12935;50.782;6.074;2024-03-08T03:38:52;92.82;;;83.00;;
24857;SDS011;12935;50.782;6.074;2024-03-08T03:41:29;96.10;;;84.13;;
24857;SDS011;12935;50.782;6.074;2024-03-08T03:43:54;93.47;;;83.17;;
24857;SDS011;12935;50.782;6.074;2024-03-08T03:46:20;95.33;;;84.60;;
24857;SDS011;12935;50.782;6.074;2024-03-08T03:48:45;95.37;;;85.03;;
24857;SDS011;12935;50.782;6.074;2024-03-08T03:51:11;97.60;;;85.63;;
24857;SDS011;12935;50.782;6.074;2024-03-08T03:53:37;101.20;;;84.53;;
24857;SDS011;12935;50.782;6.074;2024-03-08T03:56:02;92.30;;;82.87;;
24857;SDS011;12935;50.782;6.074;2024-03-08T03:58:32;94.07;;;83.88;;
24857;SDS011;12935;50.782;6.074;2024-03-08T04:00:57;92.00;;;82.13;;
24857;SDS011;12935;50.782;6.074;2024-03-08T04:03:23;91.70;;;82.30;;
24857;SDS011;12935;50.782;6.074;2024-03-08T04:05:48;90.80;;;81.53;;
24857;SDS011;12935;50.782;6.074;2024-03-08T04:08:13;92.83;;;82.83;;
24857;SDS011;12935;50.782;6.074;2024-03-08T04:10:39;93.77;;;83.80;;
24857;SDS011;12935;50.782;6.074;2024-03-08T04:13:04;93.10;;;83.20;;
24857;SDS011;12935;50.782;6.074;2024-03-08T04:15:29;95.57;;;85.03;;
24857;SDS011;12935;50.782;6.074;2024-03-08T04:17:55;96.77;;;85.07;;
24857;SDS011;12935;50.782;6.074;2024-03-08T04:20:22;98.88;;;88.43;;
24857;SDS011;12935;50.782;6.074;2024-03-08T04:22:47;96.20;;;85.30;;
24857;SDS011;12935;50.782;6.074;2024-03-08T04:25:14;114.15;;;90.53;;
24857;SDS011;12935;50.782;6.074;2024-03-08T04:27:39;94.27;;;84.07;;
24857;SDS011;12935;50.782;6.074;2024-03-08T04:30:06;90.23;;;80.90;;
24857;SDS011;12935;50.782;6.074;2024-03-08T04:32:34;90.75;;;81.40;;
24857;SDS011;12935;50.782;6.074;2024-03-08T04:35:00;101.97;;;89.20;;
24857;SDS011;12935;50.782;6.074;2024-03-08T04:37:26;92.85;;;82.97;;
24857;SDS011;12935;50.782;6.074;2024-03-08T04:39:54;95.45;;;84.95;;
24857;SDS011;12935;50.782;6.074;2024-03-08T04:42:19;93.03;;;83.03;;
24857;SDS011;12935;50.782;6.074;2024-03-08T04:44:45;94.07;;;83.93;;
24857;SDS011;12935;50.782;6.074;2024-03-08T04:47:10;96.30;;;85.80;;
24857;SDS011;12935;50.782;6.074;2024-03-08T04:49:36;119.17;;;87.97;;
24857;SDS011;12935;50.782;6.074;2024-03-08T04:52:01;95.93;;;85.53;;
24857;SDS011;12935;50.782;6.074;2024-03-08T04:54:30;97.60;;;85.85;;
24857;SDS011;12935;50.782;6.074;2024-03-08T04:56:56;99.70;;;85.17;;
24857;SDS011;12935;50.782;6.074;2024-03-08T04:59:22;104.43;;;86.40;;
24857;SDS011;12935;50.782;6.074;2024-03-08T05:01:47;93.07;;;82.97;;
24857;SDS011;12935;50.782;6.074;2024-03-08T05:04:13;95.03;;;84.40;;
24857;SDS011;12935;50.782;6.074;2024-03-08T05:06:38;104.33;;;87.67;;
24857;SDS011;12935;50.782;6.074;2024-03-08T05:09:04;89.87;;;80.83;;
24857;SDS011;12935;50.782;6.074;2024-03-08T05:11:41;94.82;;;80.70;;
24857;SDS011;12935;50.782;6.074;2024-03-08T05:14:08;92.68;;;83.03;;
24857;SDS011;12935;50.782;6.074;2024-03-08T05:16:33;95.03;;;84.27;;
24857;SDS011;12935;50.782;6.074;2024-03-08T05:18:59;91.33;;;81.60;;
24857;SDS011;12935;50.782;6.074;2024-03-08T05:21:24;93.20;;;82.90;;
24857;SDS011;12935;50.782;6.074;2024-03-08T05:23:50;93.50;;;83.67;;
24857;SDS011;12935;50.782;6.074;2024-03-08T05:26:16;93.10;;;83.63;;
24857;SDS011;12935;50.782;6.074;2024-03-08T05:28:41;92.83;;;83.03;;
24857;SDS011;12935;50.782;6.074;2024-03-08T05:31:07;97.87;;;85.37;;
24857;SDS011;12935;50.782;6.074;2024-03-08T05:33:32;89.67;;;80.53;;
24857;SDS011;12935;50.782;6.074;2024-03-08T05:35:59;93.00;;;81.53;;
24857;SDS011;12935;50.782;6.074;2024-03-08T05:38:26;90.40;;;81.03;;
24857;SDS011;12935;50.782;6.074;2024-03-08T05:40:53;90.07;;;80.68;;
24857;SDS011;12935;50.782;6.074;2024-03-08T05:43:18;90.57;;;81.20;;
24857;SDS011;12935;50.782;6.074;2024-03-08T05:45:44;92.68;;;83.10;;
24857;SDS011;12935;50.782;6.074;2024-03-08T05:48:10;92.93;;;83.30;;
24857;SDS011;12935;50.782;6.074;2024-03-08T05:50:37;91.90;;;82.13;;
24857;SDS011;12935;50.782;6.074;2024-03-08T05:53:03;92.67;;;82.80;;
24857;SDS011;12935;50.782;6.074;2024-03-08T05:55:31;93.22;;;82.20;;
24857;SDS011;12935;50.782;6.074;2024-03-08T05:58:00;105.75;;;88.68;;
24857;SDS011;12935;50.782;6.074;2024-03-08T06:00:26;93.53;;;83.00;;
24857;SDS011;12935;50.782;6.074;2024-03-08T06:02:51;96.10;;;84.63;;
24857;SDS011;12935;50.782;6.074;2024-03-08T06:05:16;97.67;;;86.37;;
24857;SDS011;12935;50.782;6.074;2024-03-08T06:07:42;92.33;;;82.47;;
24857;SDS011;12935;50.782;6.074;2024-03-08T06:10:08;100.70;;;86.20;;
24857;SDS011;12935;50.782;6.074;2024-03-08T06:12:39;92.50;;;83.05;;
24857;SDS011;12935;50.782;6.074;2024-03-08T06:15:07;97.15;;;85.60;;
24857;SDS011;12935;50.782;6.074;2024-03-08T06:17:33;102.82;;;86.35;;
24857;SDS011;12935;50.782;6.074;2024-03-08T06:19:59;95.30;;;85.07;;
24857;SDS011;12935;50.782;6.074;2024-03-08T06:22:25;89.37;;;80.17;;
24857;SDS011;12935;50.782;6.074;2024-03-08T06:24:50;104.10;;;87.70;;
24857;SDS011;12935;50.782;6.074;2024-03-08T06:27:16;87.43;;;79.13;;
24857;SDS011;12935;50.782;6.074;2024-03-08T06:29:42;97.22;;;86.55;;
24857;SDS011;12935;50.782;6.074;2024-03-08T06:32:07;98.23;;;85.47;;
24857;SDS011;12935;50.782;6.074;2024-03-08T06:34:33;88.60;;;79.57;;
24857;SDS011;12935;50.782;6.074;2024-03-08T06:36:59;89.95;;;80.68;;
24857;SDS011;12935;50.782;6.074;2024-03-08T06:39:26;91.65;;;82.40;;
24857;SDS011;12935;50.782;6.074;2024-03-08T06:41:52;98.13;;;87.47;;
24857;SDS011;12935;50.782;6.074;2024-03-08T06:44:17;93.70;;;83.57;;
24857;SDS011;12935;50.782;6.074;2024-03-08T06:46:42;97.83;;;85.27;;
24857;SDS011;12935;50.782;6.074;2024-03-08T06:49:08;97.63;;;86.77;;
24857;SDS011;12935;50.782;6.074;2024-03-08T06:51:35;90.05;;;80.90;;
24857;SDS011;12935;50.782;6.074;2024-03-08T06:54:01;97.50;;;84.13;;
24857;SDS011;12935;50.782;6.074;2024-03-08T06:56:26;100.33;;;84.63;;
24857;SDS011;12935;50.782;6.074;2024-03-08T06:58:51;94.67;;;84.30;;
24857;SDS011;12935;50.782;6.074;2024-03-08T07:01:17;93.93;;;83.83;;
24857;SDS011;12935;50.782;6.074;2024-03-08T07:03:42;106.60;;;86.37;;
24857;SDS011;12935;50.782;6.074;2024-03-08T07:06:09;97.40;;;86.88;;
24857;SDS011;12935;50.782;6.074;2024-03-08T07:08:35;97.05;;;84.47;;
24857;SDS011;12935;50.782;6.074;2024-03-08T07:11:00;94.50;;;84.40;;
24857;SDS011;12935;50.782;6.074;2024-03-08T07:13:26;95.80;;;83.17;;
24857;SDS011;12935;50.782;6.074;2024-03-08T07:15:53;104.82;;;87.80;;
24857;SDS011;12935;50.782;6.074;2024-03-08T07:18:18;93.10;;;83.30;;
24857;SDS011;12935;50.782;6.074;2024-03-08T07:20:43;91.13;;;81.30;;
24857;SDS011;12935;50.782;6.074;2024-03-08T07:23:09;102.43;;;86.53;;
24857;SDS011;12935;50.782;6.074;2024-03-08T07:25:35;91.85;;;81.93;;
24857;SDS011;12935;50.782;6.074;2024-03-08T07:28:00;92.87;;;83.00;;
24857;SDS011;12935;50.782;6.074;2024-03-08T07:30:26;96.07;;;85.33;;
24857;SDS011;12935;50.782;6.074;2024-03-08T07:33:18;89.63;;;80.35;;
24857;SDS011;12935;50.782;6.074;2024-03-08T07:35:43;100.60;;;86.33;;
24857;SDS011;12935;50.782;6.074;2024-03-08T07:38:10;102.20;;;86.25;;
24857;SDS011;12935;50.782;6.074;2024-03-08T07:40:39;96.45;;;85.88;;
24857;SDS011;12935;50.782;6.074;2024-03-08T07:43:09;113.40;;;91.55;;
24857;SDS011;12935;50.782;6.074;2024-03-08T07:45:35;98.20;;;86.28;;
24857;SDS011;12935;50.782;6.074;2024-03-08T07:48:01;99.07;;;86.43;;
24857;SDS011;12935;50.782;6.074;2024-03-08T07:50:27;100.13;;;89.45;;
24857;SDS011;12935;50.782;6.074;2024-03-08T07:52:53;103.03;;;86.30;;
24857;SDS011;12935;50.782;6.074;2024-03-08T07:55:19;95.73;;;85.30;;
24857;SDS011;12935;50.782;6.074;2024-03-08T07:57:45;99.17;;;85.00;;
24857;SDS011;12935;50.782;6.074;2024-03-08T08:00:12;94.55;;;84.88;;
24857;SDS011;12935;50.782;6.074;2024-03-08T08:02:42;102.22;;;86.40;;
24857;SDS011;12935;50.782;6.074;2024-03-08T08:05:08;101.27;;;88.20;;
24857;SDS011;12935;50.782;6.074;2024-03-08T08:07:35;97.57;;;86.40;;
24857;SDS011;12935;50.782;6.074;2024-03-08T08:10:01;99.13;;;88.10;;
24857;SDS011;12935;50.782;6.074;2024-03-08T08:12:26;103.90;;;87.20;;
24857;SDS011;12935;50.782;6.074;2024-03-08T08:14:53;99.55;;;85.47;;
24857;SDS011;12935;50.782;6.074;2024-03-08T08:17:18;97.03;;;86.47;;
24857;SDS011;12935;50.782;6.074;2024-03-08T08:19:43;110.50;;;88.40;;
24857;SDS011;12935;50.782;6.074;2024-03-08T08:22:09;99.33;;;88.50;;
24857;SDS011;12935;50.782;6.074;2024-03-08T08:24:34;92.30;;;83.10;;
24857;SDS011;12935;50.782;6.074;2024-03-08T08:27:01;98.38;;;85.57;;
24857;SDS011;12935;50.782;6.074;2024-03-08T08:29:27;94.63;;;84.23;;
24857;SDS011;12935;50.782;6.074;2024-03-08T08:31:52;99.17;;;86.07;;
24857;SDS011;12935;50.782;6.074;2024-03-08T08:34:17;96.53;;;86.17;;
24857;SDS011;12935;50.782;6.074;2024-03-08T08:36:44;110.97;;;89.55;;
24857;SDS011;12935;50.782;6.074;2024-03-08T08:39:10;115.23;;;93.67;;
24857;SDS011;12935;50.782;6.074;2024-03-08T08:41:38;109.95;;;91.20;;
24857;SDS011;12935;50.782;6.074;2024-03-08T08:44:04;105.43;;;89.83;;
24857;SDS011;12935;50.782;6.074;2024-03-08T08:46:29;115.10;;;91.17;;
24857;SDS011;12935;50.782;6.074;2024-03-08T08:48:54;94.63;;;84.47;;
24857;SDS011;12935;50.782;6.074;2024-03-08T08:51:19;98.93;;;87.03;;
24857;SDS011;12935;50.782;6.074;2024-03-08T08:53:45;101.47;;;87.43;;
24857;SDS011;12935;50.782;6.074;2024-03-08T08:56:12;110.25;;;90.90;;
24857;SDS011;12935;50.782;6.074;2024-03-08T08:58:39;103.80;;;90.03;;
24857;SDS011;12935;50.782;6.074;2024-03-08T09:01:05;108.40;;;89.47;;
24857;SDS011;12935;50.782;6.074;2024-03-08T09:03:32;105.85;;;89.03;;
24857;SDS011;12935;50.782;6.074;2024-03-08T09:05:59;99.28;;;87.75;;
24857;SDS011;12935;50.782;6.074;2024-03-08T09:08:25;126.20;;;92.13;;
24857;SDS011;12935;50.782;6.074;2024-03-08T09:10:50;109.43;;;91.17;;
24857;SDS011;12935;50.782;6.074;2024-03-08T09:13:16;109.57;;;89.93;;
24857;SDS011;12935;50.782;6.074;2024-03-08T09:15:41;99.47;;;87.33;;
24857;SDS011;12935;50.782;6.074;2024-03-08T09:18:07;96.03;;;85.93;;
24857;SDS011;12935;50.782;6.074;2024-03-08T09:20:33;102.72;;;89.03;;
24857;SDS011;12935;50.782;6.074;2024-03-08T09:22:58;108.33;;;89.47;;
24857;SDS011;12935;50.782;6.074;2024-03-08T09:25:23;102.77;;;87.77;;
24857;SDS011;12935;50.782;6.074;2024-03-08T09:27:49;119.80;;;91.43;;
24857;SDS011;12935;50.782;6.074;2024-03-08T09:30:14;104.60;;;90.17;;
24857;SDS011;12935;50.782;6.074;2024-03-08T09:32:40;101.80;;;87.33;;
24857;SDS011;12935;50.782;6.074;2024-03-08T09:35:06;97.63;;;86.90;;
24857;SDS011;12935;50.782;6.074;2024-03-08T09:37:32;101.20;;;87.70;;
24857;SDS011;12935;50.782;6.074;2024-03-08T09:39:58;101.67;;;86.20;;
24857;SDS011;12935;50.782;6.074;2024-03-08T09:42:24;111.37;;;90.40;;
24857;SDS011;12935;50.782;6.074;2024-03-08T09:44:50;123.77;;;93.50;;
24857;SDS011;12935;50.782;6.074;2024-03-08T09:47:17;106.53;;;88.53;;
24857;SDS011;12935;50.782;6.074;2024-03-08T09:49:43;105.50;;;88.40;;
24857;SDS011;12935;50.782;6.074;2024-03-08T09:52:08;107.13;;;89.00;;
24857;SDS011;12935;50.782;6.074;2024-03-08T09:54:35;112.13;;;92.10;;
24857;SDS011;12935;50.782;6.074;2024-03-08T09:57:01;97.93;;;87.28;;
24857;SDS011;12935;50.782;6.074;2024-03-08T09:59:33;123.88;;;91.82;;
24857;SDS011;12935;50.782;6.074;2024-03-08T10:02:01;109.97;;;91.45;;
24857;SDS011;12935;50.782;6.074;2024-03-08T10:04:28;120.60;;;93.53;;
24857;SDS011;12935;50.782;6.074;2024-03-08T10:06:55;138.10;;;99.47;;
24857;SDS011;12935;50.782;6.074;2024-03-08T10:09:24;147.53;;;102.50;;
24857;SDS011;12935;50.782;6.074;2024-03-08T10:11:52;115.93;;;92.77;;
24857;SDS011;12935;50.782;6.074;2024-03-08T10:14:20;118.60;;;92.93;;
24857;SDS011;12935;50.782;6.074;2024-03-08T10:16:46;122.20;;;94.10;;
24857;SDS011;12935;50.782;6.074;2024-03-08T10:19:11;122.73;;;95.83;;
24857;SDS011;12935;50.782;6.074;2024-03-08T10:21:47;145.73;;;100.50;;
24857;SDS011;12935;50.782;6.074;2024-03-08T10:24:17;116.73;;;93.23;;
24857;SDS011;12935;50.782;6.074;2024-03-08T10:26:42;116.23;;;95.57;;
24857;SDS011;12935;50.782;6.074;2024-03-08T10:29:09;118.77;;;94.97;;
24857;SDS011;12935;50.782;6.074;2024-03-08T10:31:34;117.90;;;94.27;;
24857;SDS011;12935;50.782;6.074;2024-03-08T10:34:00;144.90;;;103.17;;
24857;SDS011;12935;50.782;6.074;2024-03-08T10:36:26;122.07;;;96.33;;
24857;SDS011;12935;50.782;6.074;2024-03-08T10:38:53;133.20;;;98.67;;
24857;SDS011;12935;50.782;6.074;2024-03-08T10:41:18;127.00;;;97.73;;
24857;SDS011;12935;50.782;6.074;2024-03-08T10:44:10;138.90;;;100.13;;
24857;SDS011;12935;50.782;6.074;2024-03-08T10:49:38;147.30;;;100.07;;
24857;SDS011;12935;50.782;6.074;2024-03-08T10:52:08;118.67;;;93.57;;
24857;SDS011;12935;50.782;6.074;2024-03-08T10:54:37;142.53;;;102.93;;
24857;SDS011;12935;50.782;6.074;2024-03-08T10:57:05;129.37;;;97.50;;
24857;SDS011;12935;50.782;6.074;2024-03-08T10:59:31;133.17;;;99.27;;
24857;SDS011;12935;50.782;6.074;2024-03-08T11:01:58;147.23;;;99.27;;
24857;SDS011;12935;50.782;6.074;2024-03-08T11:04:24;137.20;;;99.57;;
24857;SDS011;12935;50.782;6.074;2024-03-08T11:06:50;143.70;;;100.67;;
24857;SDS011;12935;50.782;6.074;2024-03-08T11:09:28;129.70;;;99.67;;
24857;SDS011;12935;50.782;6.074;2024-03-08T11:14:46;135.53;;;97.33;;
24857;SDS011;12935;50.782;6.074;2024-03-08T11:17:20;123.20;;;94.10;;
24857;SDS011;12935;50.782;6.074;2024-03-08T11:19:50;151.43;;;101.77;;
24857;SDS011;12935;50.782;6.074;2024-03-08T11:22:20;121.70;;;92.03;;
24857;SDS011;12935;50.782;6.074;2024-03-08T11:24:51;134.43;;;97.47;;
24857;SDS011;12935;50.782;6.074;2024-03-08T11:27:17;121.90;;;95.60;;
24857;SDS011;12935;50.782;6.074;2024-03-08T11:29:42;140.23;;;98.13;;
24857;SDS011;12935;50.782;6.074;2024-03-08T11:32:11;135.27;;;94.00;;
24857;SDS011;12935;50.782;6.074;2024-03-08T11:34:40;133.57;;;97.60;;
24857;SDS011;12935;50.782;6.074;2024-03-08T11:37:13;134.03;;;98.20;;
24857;SDS011;12935;50.782;6.074;2024-03-08T11:39:40;162.07;;;102.97;;
24857;SDS011;12935;50.782;6.074;2024-03-08T11:42:11;135.13;;;97.73;;
24857;SDS011;12935;50.782;6.074;2024-03-08T11:44:36;138.53;;;101.20;;
24857;SDS011;12935;50.782;6.074;2024-03-08T11:47:02;144.63;;;101.83;;
24857;SDS011;12935;50.782;6.074;2024-03-08T11:49:31;135.63;;;99.67;;
24857;SDS011;12935;50.782;6.074;2024-03-08T11:51:56;159.40;;;102.57;;
24857;SDS011;12935;50.782;6.074;2024-03-08T11:54:22;140.80;;;98.47;;
24857;SDS011;12935;50.782;6.074;2024-03-08T11:56:48;146.57;;;98.97;;
24857;SDS011;12935;50.782;6.074;2024-03-08T11:59:16;136.83;;;98.57;;
24857;SDS011;12935;50.782;6.074;2024-03-08T12:01:42;198.03;;;112.93;;
24857;SDS011;12935;50.782;6.074;2024-03-08T12:04:11;140.53;;;98.50;;
24857;SDS011;12935;50.782;6.074;2024-03-08T12:06:40;139.80;;;97.10;;
24857;SDS011;12935;50.782;6.074;2024-03-08T12:09:09;139.17;;;95.97;;
24857;SDS011;12935;50.782;6.074;2024-03-08T12:11:36;139.67;;;96.93;;
24857;SDS011;12935;50.782;6.074;2024-03-08T12:14:02;136.20;;;96.20;;
24857;SDS011;12935;50.782;6.074;2024-03-08T12:16:27;129.40;;;94.93;;
24857;SDS011;12935;50.782;6.074;2024-03-08T12:18:53;114.60;;;90.67;;
24857;SDS011;12935;50.782;6.074;2024-03-08T12:21:18;122.23;;;90.97;;
24857;SDS011;12935;50.782;6.074;2024-03-08T12:24:06;135.03;;;91.30;;
24857;SDS011;12935;50.782;6.074;2024-03-08T12:26:36;131.27;;;93.17;;
24857;SDS011;12935;50.782;6.074;2024-03-08T12:29:19;135.10;;;93.43;;
24857;SDS011;12935;50.782;6.074;2024-03-08T12:31:52;120.77;;;89.23;;
24857;SDS011;12935;50.782;6.074;2024-03-08T12:34:19;150.57;;;97.07;;
24857;SDS011;12935;50.782;6.074;2024-03-08T12:36:48;131.00;;;92.20;;
24857;SDS011;12935;50.782;6.074;2024-03-08T12:39:18;146.33;;;98.80;;
24857;SDS011;12935;50.782;6.074;2024-03-08T12:41:47;120.97;;;87.80;;
24857;SDS011;12935;50.782;6.074;2024-03-08T12:44:14;123.57;;;87.50;;
24857;SDS011;12935;50.782;6.074;2024-03-08T12:46:40;132.00;;;93.07;;
24857;SDS011;12935;50.782;6.074;2024-03-08T12:49:08;144.40;;;94.10;;
24857;SDS011;12935;50.782;6.074;2024-03-08T12:51:37;126.13;;;84.77;;
24857;SDS011;12935;50.782;6.074;2024-03-08T12:54:07;126.53;;;86.00;;
24857;SDS011;12935;50.782;6.074;2024-03-08T12:56:32;123.90;;;84.70;;
24857;SDS011;12935;50.782;6.074;2024-03-08T12:59:02;133.53;;;87.67;;
24857;SDS011;12935;50.782;6.074;2024-03-08T13:01:28;130.87;;;89.60;;
24857;SDS011;12935;50.782;6.074;2024-03-08T13:03:53;126.83;;;85.60;;
24857;SDS011;12935;50.782;6.074;2024-03-08T13:06:20;131.97;;;86.60;;
24857;SDS011;12935;50.782;6.074;2024-03-08T13:08:49;142.03;;;88.87;;
24857;SDS011;12935;50.782;6.074;2024-03-08T13:11:16;114.83;;;81.83;;
24857;SDS011;12935;50.782;6.074;2024-03-08T13:13:42;124.37;;;84.83;;
24857;SDS011;12935;50.782;6.074;2024-03-08T13:16:09;111.60;;;79.30;;
24857;SDS011;12935;50.782;6.074;2024-03-08T13:18:36;131.27;;;83.93;;
24857;SDS011;12935;50.782;6.074;2024-03-08T13:21:01;120.63;;;82.27;;
24857;SDS011;12935;50.782;6.074;2024-03-08T13:23:31;136.67;;;86.83;;
24857;SDS011;12935;50.782;6.074;2024-03-08T13:25:56;111.33;;;81.10;;
24857;SDS011;12935;50.782;6.074;2024-03-08T13:28:25;102.87;;;75.90;;
24857;SDS011;12935;50.782;6.074;2024-03-08T13:30:54;122.23;;;82.37;;
24857;SDS011;12935;50.782;6.074;2024-03-08T13:33:22;115.87;;;78.00;;
24857;SDS011;12935;50.782;6.074;2024-03-08T13:35:48;90.43;;;70.77;;
24857;SDS011;12935;50.782;6.074;2024-03-08T13:38:14;119.13;;;79.13;;
24857;SDS011;12935;50.782;6.074;2024-03-08T13:40:40;93.97;;;84.23;;
24857;SDS011;12935;50.782;6.074;2024-03-08T13:43:05;93.03;;;73.13;;
24857;SDS011;12935;50.782;6.074;2024-03-08T13:45:33;97.43;;;75.93;;
24857;SDS011;12935;50.782;6.074;2024-03-08T13:47:58;119.20;;;80.87;;
24857;SDS011;12935;50.782;6.074;2024-03-08T13:50:24;99.27;;;74.90;;
24857;SDS011;12935;50.782;6.074;2024-03-08T13:52:51;95.03;;;81.27;;
24857;SDS011;12935;50.782;6.074;2024-03-08T13:55:19;111.40;;;89.93;;
24857;SDS011;12935;50.782;6.074;2024-03-08T13:57:47;95.07;;;79.97;;
24857;SDS011;12935;50.782;6.074;2024-03-08T14:00:13;99.27;;;89.50;;
24857;SDS011;12935;50.782;6.074;2024-03-08T14:02:39;122.17;;;111.10;;
24857;SDS011;12935;50.782;6.074;2024-03-08T14:05:08;158.87;;;147.53;;
24857;SDS011;12935;50.782;6.074;2024-03-08T14:07:35;227.77;;;215.50;;
24857;SDS011;12935;50.782;6.074;2024-03-08T14:10:00;284.73;;;270.60;;
24857;SDS011;12935;50.782;6.074;2024-03-08T14:12:26;305.43;;;290.20;;
24857;SDS011;12935;50.782;6.074;2024-03-08T14:14:52;329.83;;;315.20;;
24857;SDS011;12935;50.782;6.074;2024-03-08T14:17:17;356.47;;;340.23;;